Time;durP1;ratioP1;P1;durP2;ratioP2;P2;SDS_P1;SDS_P2;PMS_P1;PMS_P2;Temp;Humidity;BMP_temperature;BMP_pressure;BME280_temperature;BME280_humidity;BME280_pressure;Samples;Min_cycle;Max_cycle;Signal;HPM_P1;HPM_P2
2021/08/15 00:01:25;;;;;;;9.83;6.50;;;;;;;;;;5028852;28;20613;-74
2021/08/15 00:03:51;;;;;;;10.10;6.27;;;;;;;;;;5030671;28;20443;-75
2021/08/15 00:06:18;;;;;;;9.20;7.00;;;;;;;;;;5028813;28;20796;-74
2021/08/15 00:08:46;;;;;;;8.77;6.50;;;;;;;;;;5030137;28;20765;-75
2021/08/15 00:11:12;;;;;;;16.10;7.13;;;;;;;;;;5034300;28;20435;-74
2021/08/15 00:13:38;;;;;;;14.30;7.60;;;;;;;;;;5043921;28;20761;-73
2021/08/15 00:16:04;;;;;;;12.20;6.03;;;;;;;;;;5032345;28;20559;-73
2021/08/15 00:18:30;;;;;;;13.87;7.50;;;;;;;;;;5031509;28;20474;-74
2021/08/15 00:20:56;;;;;;;10.00;6.40;;;;;;;;;;5032401;28;20904;-73
2021/08/15 00:23:22;;;;;;;10.47;6.53;;;;;;;;;;5032564;28;20465;-74
2021/08/15 00:25:48;;;;;;;10.17;6.70;;;;;;;;;;5032307;28;20432;-75
2021/08/15 00:28:14;;;;;;;14.23;7.30;;;;;;;;;;5031810;28;20419;-73
2021/08/15 00:30:40;;;;;;;10.00;6.70;;;;;;;;;;5033569;28;20459;-73
2021/08/15 00:33:09;;;;;;;10.77;7.33;;;;;;;;;;5034243;28;20424;-74
2021/08/15 00:35:35;;;;;;;8.80;6.70;;;;;;;;;;5031938;28;20515;-73
2021/08/15 00:38:01;;;;;;;9.60;6.57;;;;;;;;;;5047060;28;20417;-72
2021/08/15 00:40:27;;;;;;;13.80;7.47;;;;;;;;;;5052475;28;20418;-77
2021/08/15 00:42:53;;;;;;;11.47;6.70;;;;;;;;;;5050521;28;20402;-73
2021/08/15 00:45:19;;;;;;;7.43;5.90;;;;;;;;;;5040308;28;20563;-74
2021/08/15 00:47:45;;;;;;;11.60;6.67;;;;;;;;;;5039109;28;20410;-75
2021/08/15 00:50:11;;;;;;;9.50;6.60;;;;;;;;;;5032964;28;21223;-73
2021/08/15 00:52:37;;;;;;;11.97;6.50;;;;;;;;;;5046056;28;21088;-74
2021/08/15 00:55:07;;;;;;;8.40;6.17;;;;;;;;;;5034508;28;20818;-72
2021/08/15 00:57:34;;;;;;;9.80;6.30;;;;;;;;;;5044003;28;20458;-76
2021/08/15 01:00:08;;;;;;;9.10;6.40;;;;;;;;;;5041734;28;20426;-74
2021/08/15 01:02:37;;;;;;;15.33;7.20;;;;;;;;;;5037934;28;20422;-75
2021/08/15 01:05:04;;;;;;;14.70;6.87;;;;;;;;;;5034642;28;20464;-76
2021/08/15 01:07:30;;;;;;;9.93;6.30;;;;;;;;;;5036146;28;20434;-74
2021/08/15 01:09:56;;;;;;;9.37;6.50;;;;;;;;;;5037351;28;21011;-73
2021/08/15 01:12:26;;;;;;;11.23;6.20;;;;;;;;;;5037080;28;20447;-74
2021/08/15 01:14:52;;;;;;;9.03;6.20;;;;;;;;;;5037661;28;20464;-73
2021/08/15 01:17:19;;;;;;;8.10;6.23;;;;;;;;;;5038140;28;20416;-73
2021/08/15 01:19:45;;;;;;;7.50;6.03;;;;;;;;;;5036139;28;20773;-71
2021/08/15 01:22:11;;;;;;;12.47;6.63;;;;;;;;;;5036317;28;20415;-72
2021/08/15 01:24:37;;;;;;;9.90;6.63;;;;;;;;;;5037136;28;20439;-72
2021/08/15 01:27:05;;;;;;;10.23;5.70;;;;;;;;;;5036231;28;20415;-75
2021/08/15 01:29:31;;;;;;;10.27;5.90;;;;;;;;;;5033879;28;20427;-74
2021/08/15 01:31:58;;;;;;;8.83;6.20;;;;;;;;;;5034924;28;20427;-72
2021/08/15 01:34:24;;;;;;;9.33;5.73;;;;;;;;;;5034503;28;20511;-74
2021/08/15 01:36:50;;;;;;;7.03;6.00;;;;;;;;;;5034237;28;20405;-73
2021/08/15 01:39:16;;;;;;;9.87;5.80;;;;;;;;;;5034739;28;20408;-74
2021/08/15 01:41:42;;;;;;;7.17;5.23;;;;;;;;;;5034792;28;20420;-72
2021/08/15 01:44:08;;;;;;;7.37;5.30;;;;;;;;;;5034449;28;20432;-74
2021/08/15 01:46:35;;;;;;;8.50;6.10;;;;;;;;;;5034086;28;20416;-74
2021/08/15 01:49:02;;;;;;;8.03;6.00;;;;;;;;;;5034410;28;20765;-75
2021/08/15 01:51:28;;;;;;;10.20;5.60;;;;;;;;;;5034270;28;20412;-75
2021/08/15 01:53:56;;;;;;;7.60;5.17;;;;;;;;;;5034565;28;20416;-72
2021/08/15 01:56:22;;;;;;;8.93;5.43;;;;;;;;;;5034310;28;20408;-74
2021/08/15 01:58:48;;;;;;;6.37;5.27;;;;;;;;;;5033733;28;20474;-74
2021/08/15 02:01:15;;;;;;;7.67;4.80;;;;;;;;;;5032901;28;20428;-73
2021/08/15 02:03:41;;;;;;;11.07;5.60;;;;;;;;;;5037228;28;20878;-73
2021/08/15 02:06:07;;;;;;;7.37;5.07;;;;;;;;;;5033678;28;20536;-75
2021/08/15 02:08:33;;;;;;;5.63;4.63;;;;;;;;;;5033912;28;20892;-74
2021/08/15 02:10:59;;;;;;;8.37;5.43;;;;;;;;;;5027807;28;20436;-74
2021/08/15 02:13:26;;;;;;;8.93;5.47;;;;;;;;;;5034234;28;20447;-73
2021/08/15 02:15:52;;;;;;;13.30;6.17;;;;;;;;;;5033772;28;20463;-74
2021/08/15 02:18:18;;;;;;;9.90;6.43;;;;;;;;;;5033366;28;20415;-74
2021/08/15 02:20:44;;;;;;;8.13;6.67;;;;;;;;;;5033608;28;20421;-74
2021/08/15 02:23:11;;;;;;;7.60;5.63;;;;;;;;;;5033902;28;20412;-73
2021/08/15 02:25:37;;;;;;;7.87;5.80;;;;;;;;;;5033575;28;20794;-75
2021/08/15 02:28:04;;;;;;;7.73;5.90;;;;;;;;;;5033514;28;20423;-73
2021/08/15 02:30:30;;;;;;;8.47;6.27;;;;;;;;;;5033948;28;20502;-74
2021/08/15 02:32:56;;;;;;;9.27;5.83;;;;;;;;;;5031987;28;20427;-74
2021/08/15 02:35:22;;;;;;;11.57;6.00;;;;;;;;;;5033262;28;20456;-75
2021/08/15 02:37:50;;;;;;;10.00;5.93;;;;;;;;;;5033534;28;20515;-73
2021/08/15 02:40:16;;;;;;;10.37;5.93;;;;;;;;;;5033582;28;20418;-72
2021/08/15 02:42:43;;;;;;;9.70;5.90;;;;;;;;;;5033335;28;20442;-73
2021/08/15 02:45:11;;;;;;;9.77;6.07;;;;;;;;;;5033373;28;20438;-73
2021/08/15 02:47:37;;;;;;;9.73;5.50;;;;;;;;;;5033107;28;20420;-73
2021/08/15 02:50:03;;;;;;;7.43;6.47;;;;;;;;;;5033227;28;20410;-74
2021/08/15 02:52:29;;;;;;;8.80;6.00;;;;;;;;;;5033385;28;20416;-74
2021/08/15 02:54:55;;;;;;;9.00;5.87;;;;;;;;;;5033088;28;20817;-75
2021/08/15 02:57:22;;;;;;;9.20;5.60;;;;;;;;;;5032928;28;20416;-74
2021/08/15 02:59:48;;;;;;;9.03;5.80;;;;;;;;;;5033068;28;20416;-74
2021/08/15 03:02:15;;;;;;;7.43;5.40;;;;;;;;;;5033203;28;20948;-75
2021/08/15 03:04:42;;;;;;;10.37;5.87;;;;;;;;;;5035417;28;20444;-73
2021/08/15 03:07:09;;;;;;;8.83;6.47;;;;;;;;;;5032455;28;20525;-75
2021/08/15 03:09:35;;;;;;;10.37;5.70;;;;;;;;;;5033022;28;20787;-74
2021/08/15 03:12:01;;;;;;;14.33;5.33;;;;;;;;;;5033031;28;20444;-75
2021/08/15 03:14:27;;;;;;;7.83;6.60;;;;;;;;;;5032999;28;20943;-73
2021/08/15 03:16:53;;;;;;;8.83;5.37;;;;;;;;;;5032511;28;20419;-74
2021/08/15 03:19:19;;;;;;;10.10;5.87;;;;;;;;;;5032769;28;20766;-72
2021/08/15 03:21:45;;;;;;;8.67;5.10;;;;;;;;;;5033108;28;20891;-74
2021/08/15 03:24:11;;;;;;;10.73;5.83;;;;;;;;;;5032991;28;20429;-72
2021/08/15 03:26:40;;;;;;;9.10;5.43;;;;;;;;;;5032440;28;20423;-73
2021/08/15 03:29:06;;;;;;;8.53;6.30;;;;;;;;;;5032341;28;20418;-73
2021/08/15 03:31:32;;;;;;;9.80;6.00;;;;;;;;;;5032560;28;20774;-73
2021/08/15 03:33:58;;;;;;;9.50;6.10;;;;;;;;;;5032680;28;20447;-75
2021/08/15 03:36:25;;;;;;;11.80;6.70;;;;;;;;;;5033127;28;20412;-74
2021/08/15 03:38:51;;;;;;;9.30;6.60;;;;;;;;;;5032496;28;20416;-76
2021/08/15 03:41:17;;;;;;;9.90;6.53;;;;;;;;;;5032455;28;20408;-74
2021/08/15 03:43:43;;;;;;;7.43;6.23;;;;;;;;;;5034712;28;20430;-73
2021/08/15 03:46:09;;;;;;;10.17;7.10;;;;;;;;;;5036737;28;20931;-74
2021/08/15 03:48:35;;;;;;;9.73;7.00;;;;;;;;;;5036322;28;20462;-74
2021/08/15 03:51:01;;;;;;;10.47;7.23;;;;;;;;;;5036468;28;20466;-73
2021/08/15 03:53:27;;;;;;;8.10;6.50;;;;;;;;;;5036528;28;20427;-73
2021/08/15 03:55:53;;;;;;;10.03;7.90;;;;;;;;;;5036241;28;20462;-72
2021/08/15 03:58:19;;;;;;;8.37;7.30;;;;;;;;;;5036247;28;20420;-75
2021/08/15 04:00:45;;;;;;;12.53;8.50;;;;;;;;;;5036355;28;20416;-73
2021/08/15 04:03:13;;;;;;;10.20;8.00;;;;;;;;;;5037318;28;20418;-73
2021/08/15 04:05:40;;;;;;;11.77;8.50;;;;;;;;;;5036121;28;20458;-74
2021/08/15 04:08:06;;;;;;;14.03;7.53;;;;;;;;;;5025574;28;20427;-75
2021/08/15 04:10:32;;;;;;;14.00;7.93;;;;;;;;;;5036393;28;20422;-74
2021/08/15 04:12:58;;;;;;;13.70;7.97;;;;;;;;;;5036403;28;20419;-73
2021/08/15 04:15:25;;;;;;;10.50;8.30;;;;;;;;;;5037503;28;20477;-72
2021/08/15 04:17:51;;;;;;;10.70;8.03;;;;;;;;;;5037028;28;20901;-73
2021/08/15 04:20:16;;;;;;;11.63;8.10;;;;;;;;;;5036104;28;20505;-75
2021/08/15 04:22:42;;;;;;;9.07;7.13;;;;;;;;;;5036005;28;20506;-75
2021/08/15 04:25:09;;;;;;;8.63;7.40;;;;;;;;;;5036486;28;20445;-73
2021/08/15 04:27:35;;;;;;;10.60;8.33;;;;;;;;;;5035905;28;20418;-74
2021/08/15 04:30:01;;;;;;;14.83;8.47;;;;;;;;;;5036755;28;20820;-76
2021/08/15 04:32:27;;;;;;;12.33;8.40;;;;;;;;;;5035890;28;20523;-74
2021/08/15 04:34:53;;;;;;;15.80;8.60;;;;;;;;;;5036116;28;20900;-73
2021/08/15 04:37:20;;;;;;;10.50;8.53;;;;;;;;;;5035383;28;20411;-71
2021/08/15 04:39:46;;;;;;;11.67;8.03;;;;;;;;;;5035822;28;20403;-71
2021/08/15 04:42:12;;;;;;;10.43;8.70;;;;;;;;;;5035632;28;20411;-75
2021/08/15 04:44:38;;;;;;;11.50;8.00;;;;;;;;;;5036048;28;20478;-74
2021/08/15 04:47:05;;;;;;;14.33;8.60;;;;;;;;;;5035360;28;20941;-74
2021/08/15 04:49:31;;;;;;;12.53;8.77;;;;;;;;;;5035515;28;20488;-72
2021/08/15 04:51:58;;;;;;;11.17;8.40;;;;;;;;;;5035384;28;20426;-75
2021/08/15 04:54:27;;;;;;;12.77;8.70;;;;;;;;;;5034569;28;20461;-72
2021/08/15 04:56:53;;;;;;;9.33;8.00;;;;;;;;;;5034534;28;20413;-71
2021/08/15 04:59:19;;;;;;;11.93;8.03;;;;;;;;;;5035520;28;20492;-74
2021/08/15 05:01:45;;;;;;;13.30;8.03;;;;;;;;;;5045132;28;20449;-74
2021/08/15 05:04:11;;;;;;;14.87;8.50;;;;;;;;;;5035239;28;20425;-74
2021/08/15 05:06:37;;;;;;;12.90;8.50;;;;;;;;;;5034750;28;20461;-74
2021/08/15 05:09:04;;;;;;;9.80;8.80;;;;;;;;;;5035307;28;20902;-73
2021/08/15 05:11:30;;;;;;;13.03;9.10;;;;;;;;;;5035203;28;20473;-73
2021/08/15 05:13:56;;;;;;;15.37;9.40;;;;;;;;;;5034901;28;20917;-73
2021/08/15 05:16:22;;;;;;;15.03;10.10;;;;;;;;;;5034935;28;20652;-73
2021/08/15 05:18:48;;;;;;;14.80;9.10;;;;;;;;;;5034710;28;20458;-72
2021/08/15 05:21:14;;;;;;;14.80;10.20;;;;;;;;;;5033916;28;20534;-73
2021/08/15 05:23:40;;;;;;;17.00;9.87;;;;;;;;;;5035011;28;20805;-71
2021/08/15 05:26:06;;;;;;;15.10;10.23;;;;;;;;;;5034549;28;20429;-72
2021/08/15 05:28:32;;;;;;;12.40;9.90;;;;;;;;;;5034567;28;20418;-72
2021/08/15 05:30:58;;;;;;;15.33;9.70;;;;;;;;;;5034729;28;20424;-71
2021/08/15 05:33:24;;;;;;;15.80;10.03;;;;;;;;;;5034759;28;20418;-73
2021/08/15 05:35:50;;;;;;;14.40;10.33;;;;;;;;;;5034635;28;20825;-72
2021/08/15 05:38:16;;;;;;;19.23;10.40;;;;;;;;;;5034087;28;20422;-74
2021/08/15 05:40:42;;;;;;;14.43;11.13;;;;;;;;;;5034589;28;20410;-75
2021/08/15 05:43:08;;;;;;;15.53;10.20;;;;;;;;;;5034516;28;20415;-74
2021/08/15 05:45:35;;;;;;;18.97;10.47;;;;;;;;;;5034658;28;20442;-75
2021/08/15 05:48:01;;;;;;;15.27;11.30;;;;;;;;;;5033998;28;20423;-74
2021/08/15 05:50:27;;;;;;;14.23;10.40;;;;;;;;;;5034524;28;20469;-73
2021/08/15 05:52:53;;;;;;;14.00;10.73;;;;;;;;;;5034261;28;20420;-74
2021/08/15 05:55:19;;;;;;;18.73;11.10;;;;;;;;;;5034164;28;20471;-73
2021/08/15 05:57:46;;;;;;;12.30;9.90;;;;;;;;;;5033763;28;20417;-75
2021/08/15 06:00:12;;;;;;;15.63;10.20;;;;;;;;;;5034246;28;20419;-73
2021/08/15 06:02:38;;;;;;;11.13;8.70;;;;;;;;;;5041001;28;20468;-75
2021/08/15 06:05:04;;;;;;;16.13;9.53;;;;;;;;;;5029784;28;20439;-75
2021/08/15 06:07:30;;;;;;;13.10;8.60;;;;;;;;;;5033319;28;20423;-72
2021/08/15 06:09:56;;;;;;;11.87;8.50;;;;;;;;;;5034005;28;20485;-72
2021/08/15 06:12:22;;;;;;;11.80;8.13;;;;;;;;;;5033601;28;20419;-75
2021/08/15 06:14:48;;;;;;;11.40;8.57;;;;;;;;;;5034085;28;20860;-74
2021/08/15 06:17:14;;;;;;;9.83;8.80;;;;;;;;;;5033284;28;20412;-75
2021/08/15 06:19:40;;;;;;;15.20;9.40;;;;;;;;;;5033753;28;20424;-74
2021/08/15 06:22:09;;;;;;;10.60;9.10;;;;;;;;;;5033779;28;20782;-71
2021/08/15 06:24:35;;;;;;;14.40;9.37;;;;;;;;;;5033586;28;20485;-74
2021/08/15 06:27:02;;;;;;;12.53;9.27;;;;;;;;;;5033283;28;20420;-73
2021/08/15 06:29:28;;;;;;;18.03;9.67;;;;;;;;;;5033650;28;20446;-75
2021/08/15 06:31:54;;;;;;;13.97;8.73;;;;;;;;;;5033835;28;20422;-74
2021/08/15 06:34:20;;;;;;;12.93;9.00;;;;;;;;;;5033530;28;20770;-74
2021/08/15 06:36:47;;;;;;;10.90;8.33;;;;;;;;;;5033009;28;20415;-75
2021/08/15 06:39:13;;;;;;;13.63;9.57;;;;;;;;;;5033456;28;20418;-73
2021/08/15 06:41:39;;;;;;;12.23;8.90;;;;;;;;;;5033659;28;20754;-75
2021/08/15 06:44:05;;;;;;;14.40;9.47;;;;;;;;;;5031973;28;20451;-75
2021/08/15 06:46:31;;;;;;;10.27;7.37;;;;;;;;;;5033233;28;20812;-75
2021/08/15 06:48:57;;;;;;;7.77;6.67;;;;;;;;;;5033609;28;20443;-76
2021/08/15 06:51:24;;;;;;;7.70;5.90;;;;;;;;;;5033470;28;20414;-75
2021/08/15 06:53:50;;;;;;;6.30;5.50;;;;;;;;;;5033072;28;20419;-73
2021/08/15 06:56:16;;;;;;;8.23;6.00;;;;;;;;;;5033191;28;20469;-74
2021/08/15 06:58:42;;;;;;;10.27;6.33;;;;;;;;;;5032752;28;20845;-74
2021/08/15 07:01:08;;;;;;;6.20;5.60;;;;;;;;;;5033574;28;20804;-73
2021/08/15 07:03:34;;;;;;;8.50;6.27;;;;;;;;;;5036181;28;20408;-74
2021/08/15 07:06:00;;;;;;;10.20;7.60;;;;;;;;;;5032777;28;20459;-73
2021/08/15 07:08:26;;;;;;;10.37;8.00;;;;;;;;;;5032566;28;20419;-74
2021/08/15 07:10:52;;;;;;;10.93;9.50;;;;;;;;;;5033173;28;21145;-75
2021/08/15 07:13:24;;;;;;;15.37;10.60;;;;;;;;;;5031578;28;20458;-75
2021/08/15 07:15:50;;;;;;;13.83;11.20;;;;;;;;;;5032995;28;20475;-75
2021/08/15 07:18:17;;;;;;;14.50;9.67;;;;;;;;;;5031900;28;20404;-74
2021/08/15 07:20:43;;;;;;;19.80;11.07;;;;;;;;;;5032663;28;20404;-73
2021/08/15 07:23:10;;;;;;;17.30;12.03;;;;;;;;;;5032931;28;20419;-75
2021/08/15 07:25:36;;;;;;;13.07;11.00;;;;;;;;;;5032665;28;20523;-75
2021/08/15 07:28:02;;;;;;;14.90;10.70;;;;;;;;;;5032255;28;20443;-74
2021/08/15 07:30:29;;;;;;;17.77;11.70;;;;;;;;;;5032508;28;20443;-73
2021/08/15 07:32:57;;;;;;;14.70;9.93;;;;;;;;;;5032310;28;20828;-74
2021/08/15 07:35:23;;;;;;;14.80;10.97;;;;;;;;;;5032759;28;20472;-75
2021/08/15 07:37:50;;;;;;;17.97;11.60;;;;;;;;;;5032288;28;21032;-74
2021/08/15 07:40:17;;;;;;;14.33;12.07;;;;;;;;;;5032540;28;20506;-73
2021/08/15 07:42:43;;;;;;;14.43;12.00;;;;;;;;;;5032921;28;20415;-74
2021/08/15 07:45:09;;;;;;;19.40;12.67;;;;;;;;;;5032640;28;21016;-74
2021/08/15 07:47:35;;;;;;;11.03;9.77;;;;;;;;;;5032190;28;20778;-73
2021/08/15 07:50:02;;;;;;;11.20;9.90;;;;;;;;;;5032502;28;20416;-72
2021/08/15 07:52:28;;;;;;;14.13;9.40;;;;;;;;;;5032726;28;20416;-73
2021/08/15 07:54:54;;;;;;;10.77;8.60;;;;;;;;;;5032261;28;20464;-74
2021/08/15 07:57:20;;;;;;;10.43;9.10;;;;;;;;;;5032406;28;20426;-74
2021/08/15 07:59:46;;;;;;;14.07;8.40;;;;;;;;;;5032481;28;20469;-74
2021/08/15 08:02:12;;;;;;;13.53;8.17;;;;;;;;;;5032261;28;20443;-74
2021/08/15 08:04:39;;;;;;;10.60;7.97;;;;;;;;;;5034648;28;20435;-73
2021/08/15 08:07:06;;;;;;;8.33;7.50;;;;;;;;;;5031791;28;20543;-73
2021/08/15 08:09:32;;;;;;;10.67;8.90;;;;;;;;;;5032236;28;20430;-75
2021/08/15 08:11:58;;;;;;;14.17;8.87;;;;;;;;;;5031979;28;20918;-74
2021/08/15 08:14:25;;;;;;;10.87;8.80;;;;;;;;;;5026540;28;20447;-73
2021/08/15 08:16:52;;;;;;;13.47;9.27;;;;;;;;;;5028226;28;20412;-73
2021/08/15 08:19:18;;;;;;;14.67;9.80;;;;;;;;;;5027711;28;20448;-73
2021/08/15 08:21:44;;;;;;;14.17;9.03;;;;;;;;;;5028727;28;20420;-73
2021/08/15 08:24:10;;;;;;;11.87;10.30;;;;;;;;;;5028505;28;20483;-74
2021/08/15 08:26:36;;;;;;;16.97;9.53;;;;;;;;;;5028275;28;20521;-74
2021/08/15 08:29:03;;;;;;;13.03;11.60;;;;;;;;;;5027645;28;20890;-74
2021/08/15 08:31:29;;;;;;;31.83;23.57;;;;;;;;;;5031992;28;20818;-74
2021/08/15 08:33:55;;;;;;;15.33;11.70;;;;;;;;;;5032328;28;20427;-75
2021/08/15 08:36:21;;;;;;;15.97;11.40;;;;;;;;;;5039598;28;20459;-74
2021/08/15 08:38:48;;;;;;;13.50;10.00;;;;;;;;;;5033374;28;20412;-75
2021/08/15 08:41:15;;;;;;;13.47;9.50;;;;;;;;;;5037634;28;20455;-74
2021/08/15 08:43:42;;;;;;;14.13;10.70;;;;;;;;;;5033643;28;20921;-73
2021/08/15 08:46:12;;;;;;;16.00;10.50;;;;;;;;;;5037449;28;20439;-73
2021/08/15 08:48:38;;;;;;;15.07;12.07;;;;;;;;;;5039169;28;20432;-73
2021/08/15 08:51:04;;;;;;;11.00;9.17;;;;;;;;;;5033570;28;20906;-73
2021/08/15 08:53:33;;;;;;;13.13;10.57;;;;;;;;;;5035835;28;20427;-73
2021/08/15 08:55:59;;;;;;;14.90;10.20;;;;;;;;;;5037527;28;20509;-75
2021/08/15 08:58:25;;;;;;;11.90;9.50;;;;;;;;;;5042534;28;20428;-75
2021/08/15 09:00:51;;;;;;;15.40;9.40;;;;;;;;;;5036735;28;20461;-74
2021/08/15 09:03:17;;;;;;;12.73;9.50;;;;;;;;;;5034602;28;20416;-75
2021/08/15 09:05:53;;;;;;;13.73;9.77;;;;;;;;;;5031378;28;20515;-75
2021/08/15 09:08:30;;;;;;;11.80;9.07;;;;;;;;;;5031281;28;20427;-75
2021/08/15 09:11:16;;;;;;;11.87;9.70;;;;;;;;;;5031266;28;20463;-74
2021/08/15 09:13:42;;;;;;;13.70;10.67;;;;;;;;;;5026260;28;20458;-74
2021/08/15 09:16:08;;;;;;;18.93;11.43;;;;;;;;;;5031455;28;21106;-75
2021/08/15 09:18:35;;;;;;;15.53;10.63;;;;;;;;;;5032993;28;20442;-74
2021/08/15 09:21:01;;;;;;;16.83;11.77;;;;;;;;;;5036165;28;20877;-75
2021/08/15 09:23:29;;;;;;;17.13;12.00;;;;;;;;;;5029806;28;20428;-76
2021/08/15 09:26:11;;;;;;;16.20;12.93;;;;;;;;;;5031406;28;20451;-73
2021/08/15 09:28:38;;;;;;;14.00;12.57;;;;;;;;;;5037207;28;20416;-75
2021/08/15 09:31:16;;;;;;;41.47;37.07;;;;;;;;;;5031141;28;20421;-75
2021/08/15 09:33:42;;;;;;;30.40;24.20;;;;;;;;;;5031192;28;20428;-74
2021/08/15 09:36:11;;;;;;;27.00;16.40;;;;;;;;;;5030856;28;21110;-74
2021/08/15 09:38:44;;;;;;;22.03;15.27;;;;;;;;;;5030844;28;20494;-74
2021/08/15 09:41:27;;;;;;;30.43;15.50;;;;;;;;;;5025224;28;20424;-74
2021/08/15 09:44:13;;;;;;;27.27;17.07;;;;;;;;;;5030876;28;20901;-76
2021/08/15 09:46:59;;;;;;;18.70;14.17;;;;;;;;;;5030507;28;20450;-74
2021/08/15 09:49:31;;;;;;;23.57;14.37;;;;;;;;;;5026782;28;20494;-75
2021/08/15 09:51:57;;;;;;;24.07;14.90;;;;;;;;;;5030928;28;20874;-75
2021/08/15 09:54:23;;;;;;;19.67;14.57;;;;;;;;;;5030365;28;20442;-73
2021/08/15 09:56:49;;;;;;;26.13;16.93;;;;;;;;;;5030294;28;20409;-74
2021/08/15 09:59:16;;;;;;;20.10;14.87;;;;;;;;;;5030897;28;20631;-74
2021/08/15 10:01:46;;;;;;;27.27;16.90;;;;;;;;;;5030681;28;20416;-72
2021/08/15 10:04:13;;;;;;;24.30;17.10;;;;;;;;;;5034378;28;20428;-74
2021/08/15 10:06:39;;;;;;;59.20;42.30;;;;;;;;;;5029889;28;20493;-74
2021/08/15 10:09:06;;;;;;;36.07;22.43;;;;;;;;;;5030358;28;20420;-73
2021/08/15 10:11:33;;;;;;;31.40;20.00;;;;;;;;;;5030167;28;20459;-74
2021/08/15 10:14:00;;;;;;;25.33;16.13;;;;;;;;;;5030413;28;20415;-74
2021/08/15 10:16:30;;;;;;;29.03;16.03;;;;;;;;;;5030210;28;20519;-74
2021/08/15 10:18:56;;;;;;;26.17;17.77;;;;;;;;;;5029873;28;20490;-74
2021/08/15 10:21:23;;;;;;;27.87;17.47;;;;;;;;;;5030019;28;20532;-75
2021/08/15 10:23:50;;;;;;;22.60;16.00;;;;;;;;;;5030014;28;20508;-75
2021/08/15 10:26:35;;;;;;;29.20;15.50;;;;;;;;;;5030203;28;20814;-75
2021/08/15 10:29:01;;;;;;;28.10;18.67;;;;;;;;;;5030033;28;20501;-72
2021/08/15 10:31:47;;;;;;;22.73;14.00;;;;;;;;;;5029834;28;20515;-76
2021/08/15 10:34:12;;;;;;;19.47;14.53;;;;;;;;;;5029606;28;20798;-74
2021/08/15 10:36:39;;;;;;;26.53;16.50;;;;;;;;;;5029553;28;20416;-74
2021/08/15 10:39:25;;;;;;;20.60;14.60;;;;;;;;;;5030078;28;20417;-75
2021/08/15 10:41:52;;;;;;;17.80;13.93;;;;;;;;;;5029691;28;21127;-76
2021/08/15 10:44:19;;;;;;;18.30;13.40;;;;;;;;;;5029680;28;20524;-75
2021/08/15 10:47:09;;;;;;;20.33;12.73;;;;;;;;;;5029138;28;20412;-75
2021/08/15 10:49:55;;;;;;;17.87;13.03;;;;;;;;;;5025120;28;20427;-74
2021/08/15 10:52:41;;;;;;;16.50;12.97;;;;;;;;;;5029428;28;20758;-73
2021/08/15 10:55:08;;;;;;;16.70;11.63;;;;;;;;;;5029488;28;20504;-73
2021/08/15 10:57:35;;;;;;;18.47;12.53;;;;;;;;;;5029110;28;20416;-74
2021/08/15 11:00:02;;;;;;;17.10;12.00;;;;;;;;;;5029459;28;20431;-73
2021/08/15 11:02:34;;;;;;;14.00;10.53;;;;;;;;;;5029445;28;20498;-73
2021/08/15 11:05:06;;;;;;;15.87;10.60;;;;;;;;;;5026726;28;20444;-74
2021/08/15 11:07:33;;;;;;;15.80;10.17;;;;;;;;;;5028926;28;20447;-72
2021/08/15 11:09:59;;;;;;;12.47;10.40;;;;;;;;;;5029322;28;20755;-75
2021/08/15 11:12:25;;;;;;;15.93;11.53;;;;;;;;;;5029235;28;20413;-72
2021/08/15 11:14:59;;;;;;;12.13;10.20;;;;;;;;;;5029403;28;20479;-74
2021/08/15 11:17:27;;;;;;;11.80;10.20;;;;;;;;;;5029095;28;20421;-73
2021/08/15 11:19:53;;;;;;;10.80;9.70;;;;;;;;;;5023765;28;20419;-75
2021/08/15 11:22:21;;;;;;;15.77;10.87;;;;;;;;;;5029155;28;21063;-72
2021/08/15 11:24:52;;;;;;;11.60;10.40;;;;;;;;;;5022060;28;20444;-73
2021/08/15 11:27:29;;;;;;;11.10;9.90;;;;;;;;;;5028763;28;20793;-74
2021/08/15 11:29:55;;;;;;;11.53;10.33;;;;;;;;;;5029031;28;20422;-74
2021/08/15 11:32:23;;;;;;;12.00;9.90;;;;;;;;;;5029009;28;20444;-74
2021/08/15 11:34:53;;;;;;;11.27;9.67;;;;;;;;;;5031072;28;20890;-73
2021/08/15 11:37:20;;;;;;;14.00;8.73;;;;;;;;;;5028702;28;20417;-74
2021/08/15 11:39:46;;;;;;;12.57;11.27;;;;;;;;;;5028772;28;20458;-74
2021/08/15 11:42:22;;;;;;;11.13;10.13;;;;;;;;;;5028886;28;20450;-73
2021/08/15 11:44:52;;;;;;;10.70;9.20;;;;;;;;;;5028921;28;20428;-75
2021/08/15 11:47:29;;;;;;;10.87;9.77;;;;;;;;;;5028392;28;20408;-73
2021/08/15 11:49:55;;;;;;;9.83;8.90;;;;;;;;;;5027290;28;21007;-73
2021/08/15 11:52:36;;;;;;;10.47;9.47;;;;;;;;;;5021589;28;20436;-74
2021/08/15 11:55:10;;;;;;;10.60;9.30;;;;;;;;;;5028869;28;20510;-72
2021/08/15 11:57:49;;;;;;;11.23;10.23;;;;;;;;;;5028184;28;20819;-74
2021/08/15 12:00:16;;;;;;;11.20;10.07;;;;;;;;;;5028808;28;20412;-75
2021/08/15 12:02:59;;;;;;;11.27;9.83;;;;;;;;;;5029793;28;20420;-73
2021/08/15 12:05:25;;;;;;;8.87;7.97;;;;;;;;;;5025405;28;20487;-73
2021/08/15 12:07:51;;;;;;;9.87;8.87;;;;;;;;;;5032197;28;20792;-74
2021/08/15 12:10:31;;;;;;;12.27;8.97;;;;;;;;;;5032516;28;20487;-74
2021/08/15 12:13:13;;;;;;;8.17;7.37;;;;;;;;;;5032589;28;20416;-74
2021/08/15 12:15:40;;;;;;;9.03;8.13;;;;;;;;;;5032506;28;20471;-75
2021/08/15 12:18:05;;;;;;;11.50;8.87;;;;;;;;;;5031966;28;20420;-74
2021/08/15 12:20:41;;;;;;;9.87;8.90;;;;;;;;;;5032345;28;20447;-74
2021/08/15 12:23:07;;;;;;;8.70;7.90;;;;;;;;;;5032368;28;20420;-74
2021/08/15 12:25:35;;;;;;;7.73;7.10;;;;;;;;;;5032351;28;20436;-73
2021/08/15 12:28:27;;;;;;;9.00;8.10;;;;;;;;;;5032016;28;20904;-74
2021/08/15 12:30:53;;;;;;;8.27;7.50;;;;;;;;;;5027590;28;20884;-74
2021/08/15 12:33:23;;;;;;;11.20;10.37;;;;;;;;;;5032367;28;20455;-74
2021/08/15 12:35:49;;;;;;;8.50;7.70;;;;;;;;;;5032085;28;20502;-74
2021/08/15 12:38:30;;;;;;;7.90;7.20;;;;;;;;;;5031881;28;20455;-75
2021/08/15 12:41:16;;;;;;;9.17;7.67;;;;;;;;;;5032446;28;20466;-75
2021/08/15 12:43:42;;;;;;;8.93;8.03;;;;;;;;;;5032119;28;20409;-74
2021/08/15 12:46:24;;;;;;;9.87;8.80;;;;;;;;;;5032025;28;20443;-74
2021/08/15 12:48:50;;;;;;;9.47;8.43;;;;;;;;;;5031790;28;20474;-73
2021/08/15 12:51:20;;;;;;;7.77;7.03;;;;;;;;;;5032312;28;20943;-75
2021/08/15 12:53:46;;;;;;;8.77;7.97;;;;;;;;;;5031764;28;20412;-76
2021/08/15 12:56:19;;;;;;;9.23;8.30;;;;;;;;;;5031822;28;20470;-73
2021/08/15 12:58:45;;;;;;;9.50;8.70;;;;;;;;;;5031488;28;20442;-75
2021/08/15 13:01:11;;;;;;;10.33;9.27;;;;;;;;;;5030448;28;20478;-72
2021/08/15 13:03:37;;;;;;;14.00;9.90;;;;;;;;;;5034151;28;20816;-75
2021/08/15 13:06:06;;;;;;;11.07;9.73;;;;;;;;;;5031222;28;20456;-72
2021/08/15 13:08:32;;;;;;;11.27;10.07;;;;;;;;;;5030966;28;20420;-73
2021/08/15 13:10:59;;;;;;;14.90;9.80;;;;;;;;;;5031676;28;20507;-73
2021/08/15 13:13:25;;;;;;;10.03;8.07;;;;;;;;;;5037763;28;20424;-73
2021/08/15 13:15:53;;;;;;;10.00;9.00;;;;;;;;;;5029958;28;20468;-76
2021/08/15 13:18:20;;;;;;;12.00;9.47;;;;;;;;;;5024684;28;20746;-74
2021/08/15 13:20:46;;;;;;;12.17;10.10;;;;;;;;;;5031286;28;20408;-76
2021/08/15 13:23:12;;;;;;;12.27;10.37;;;;;;;;;;5031170;28;20865;-73
2021/08/15 13:25:38;;;;;;;11.80;8.90;;;;;;;;;;5031100;28;20444;-76
2021/08/15 13:28:04;;;;;;;10.70;9.70;;;;;;;;;;5030709;28;20937;-73
2021/08/15 13:30:31;;;;;;;12.43;9.63;;;;;;;;;;5031087;28;20472;-73
2021/08/15 13:33:00;;;;;;;10.40;9.27;;;;;;;;;;5031034;28;20836;-75
2021/08/15 13:35:27;;;;;;;10.13;9.20;;;;;;;;;;5030830;28;20468;-75
2021/08/15 13:37:53;;;;;;;15.67;9.53;;;;;;;;;;5029237;28;20921;-75
2021/08/15 13:40:19;;;;;;;10.67;9.23;;;;;;;;;;5030879;28;20428;-75
2021/08/15 13:42:45;;;;;;;10.03;8.60;;;;;;;;;;5030877;28;20914;-76
2021/08/15 13:45:11;;;;;;;9.17;7.83;;;;;;;;;;5030860;28;20448;-74
2021/08/15 13:47:38;;;;;;;11.60;9.20;;;;;;;;;;5028958;28;20420;-73
2021/08/15 13:50:04;;;;;;;10.40;8.27;;;;;;;;;;5030603;28;20530;-76
2021/08/15 13:52:31;;;;;;;9.90;8.30;;;;;;;;;;5031058;28;20988;-73
2021/08/15 13:54:57;;;;;;;11.67;8.90;;;;;;;;;;5030703;28;20496;-75
2021/08/15 13:57:23;;;;;;;11.00;9.00;;;;;;;;;;5030320;28;20448;-75
2021/08/15 13:59:53;;;;;;;9.60;8.70;;;;;;;;;;5030484;28;20865;-74
2021/08/15 14:02:20;;;;;;;10.90;8.23;;;;;;;;;;5030559;28;20506;-74
2021/08/15 14:04:46;;;;;;;11.20;7.50;;;;;;;;;;5030348;28;20436;-74
2021/08/15 14:07:12;;;;;;;8.87;7.87;;;;;;;;;;5030104;28;20471;-76
2021/08/15 14:09:38;;;;;;;9.53;8.53;;;;;;;;;;5030281;28;20448;-74
2021/08/15 14:12:05;;;;;;;13.77;11.97;;;;;;;;;;5030263;28;20424;-75
2021/08/15 14:14:31;;;;;;;17.30;15.50;;;;;;;;;;5030274;28;20543;-74
2021/08/15 14:16:57;;;;;;;14.50;12.27;;;;;;;;;;5035575;28;20841;-74
2021/08/15 14:19:23;;;;;;;12.50;11.20;;;;;;;;;;5030122;28;20416;-74
2021/08/15 14:21:49;;;;;;;13.27;11.13;;;;;;;;;;5030178;28;20416;-75
2021/08/15 14:24:15;;;;;;;10.70;9.60;;;;;;;;;;5030201;28;20986;-76
2021/08/15 14:26:42;;;;;;;9.50;8.60;;;;;;;;;;5029950;28;21173;-75
2021/08/15 14:29:08;;;;;;;9.57;8.37;;;;;;;;;;5030190;28;21663;-74
2021/08/15 14:31:35;;;;;;;8.37;7.57;;;;;;;;;;5030210;28;20421;-75
2021/08/15 14:34:01;;;;;;;15.00;12.87;;;;;;;;;;5029824;28;20478;-74